createdAt,value
2022-12-03T00:04:30.289Z,-0.10
2022-12-03T00:19:32.187Z,0.00
2022-12-03T00:34:34.036Z,0.40
2022-12-03T00:49:36.147Z,0.00
2022-12-03T01:04:38.052Z,-0.10
2022-12-03T01:19:46.497Z,-0.10
2022-12-03T01:34:52.945Z,0.10
2022-12-03T01:50:17.582Z,0.20
2022-12-03T02:05:22.874Z,-0.10
2022-12-03T02:20:24.795Z,-0.10
2022-12-03T02:35:31.917Z,-0.10
2022-12-03T02:50:40.248Z,-0.20
2022-12-03T03:05:42.465Z,-0.10
2022-12-03T03:20:45.091Z,0.00
2022-12-03T03:35:48.763Z,-0.10
2022-12-03T03:50:51.379Z,0.40
2022-12-03T04:05:53.279Z,0.00
2022-12-03T04:21:15.085Z,0.00
2022-12-03T04:36:16.932Z,0.50
2022-12-03T04:51:18.777Z,0.20
2022-12-03T05:06:20.629Z,0.30
2022-12-03T05:21:22.593Z,0.20
2022-12-03T05:36:25.707Z,0.60
2022-12-03T05:51:27.666Z,0.40
2022-12-03T06:06:29.517Z,0.60
2022-12-03T06:21:31.478Z,0.50
2022-12-03T06:36:33.380Z,0.50
2022-12-03T06:51:36.358Z,0.40
2022-12-03T07:06:38.403Z,1.00
2022-12-03T07:21:40.440Z,1.20
2022-12-03T07:36:42.308Z,0.90
2022-12-03T07:51:53.400Z,1.20
2022-12-03T08:06:55.279Z,1.10
2022-12-03T08:22:01.275Z,1.20
2022-12-03T08:37:14.135Z,1.40
2022-12-03T08:52:19.751Z,1.20
2022-12-03T09:07:21.620Z,1.30
2022-12-03T09:22:23.573Z,1.10
2022-12-03T09:37:25.508Z,1.40
2022-12-03T09:52:29.121Z,1.90
2022-12-03T10:07:31.094Z,1.90
2022-12-03T10:22:37.225Z,1.80
2022-12-03T11:00:08.499Z,2.00
2022-12-03T11:15:16.775Z,2.00
2022-12-03T11:30:59.200Z,2.30
2022-12-03T11:46:09.475Z,2.10
2022-12-03T12:01:12.240Z,2.40
2022-12-03T12:16:34.216Z,2.40
2022-12-03T12:31:36.126Z,2.50
2022-12-03T12:46:47.670Z,2.60
2022-12-03T13:01:51.032Z,2.80
2022-12-03T13:16:56.048Z,3.10
2022-12-03T13:32:09.700Z,2.70
2022-12-03T13:47:23.630Z,2.70
2022-12-03T14:02:25.994Z,2.50
2022-12-03T14:17:33.472Z,3.00
2022-12-03T14:32:35.393Z,2.40
2022-12-03T14:47:37.357Z,2.40
2022-12-03T15:02:39.345Z,3.10
2022-12-03T15:17:41.944Z,2.60
2022-12-03T15:32:43.824Z,2.60
2022-12-03T15:47:45.857Z,2.50
2022-12-03T16:02:52.651Z,2.60
2022-12-03T16:17:55.031Z,2.40
2022-12-03T16:32:57.064Z,2.40
2022-12-03T16:47:59.694Z,2.20
2022-12-03T17:03:01.750Z,2.20
2022-12-03T17:18:03.999Z,2.30
2022-12-03T17:33:06.008Z,2.30
2022-12-03T17:48:08.586Z,2.30
2022-12-03T18:03:10.445Z,2.50
2022-12-03T18:18:12.304Z,2.40
2022-12-03T18:33:15.708Z,2.70
2022-12-03T18:48:19.482Z,2.50
2022-12-03T19:03:21.411Z,2.80
2022-12-03T19:18:24.098Z,3.00
2022-12-03T19:33:28.688Z,3.10
2022-12-03T19:48:32.009Z,3.10
2022-12-03T20:03:34.923Z,3.20
2022-12-03T20:18:36.815Z,3.60
2022-12-03T20:33:39.795Z,3.10
2022-12-03T20:48:42.933Z,3.20
2022-12-03T21:03:46.520Z,3.20
2022-12-03T21:18:48.623Z,3.20
2022-12-03T21:33:50.740Z,3.20
2022-12-03T21:48:52.694Z,3.30
2022-12-03T22:03:54.660Z,3.40
2022-12-03T22:18:56.547Z,3.30
2022-12-03T22:33:58.514Z,3.20
2022-12-03T22:49:06.487Z,2.60
2022-12-03T23:04:11.079Z,3.60
2022-12-03T23:19:13.069Z,2.50
2022-12-03T23:34:14.986Z,3.20
2022-12-03T23:49:16.890Z,2.30
